Time;durP1;ratioP1;P1;durP2;ratioP2;P2;SDS_P1;SDS_P2;PMS_P1;PMS_P2;Temp;Humidity;BMP_temperature;BMP_pressure;BME280_temperature;BME280_humidity;BME280_pressure;Samples;Min_cycle;Max_cycle;Signal;HPM_P1;HPM_P2
2022/08/27 00:01:19;;;;;;;15.80;13.03;;;20.40;99.90;;;;;;5035421;28;20493;-72
2022/08/27 00:03:45;;;;;;;19.07;14.90;;;20.40;99.90;;;;;;5034923;28;20446;-72
2022/08/27 00:06:16;;;;;;;19.37;13.70;;;20.40;99.90;;;;;;5034932;28;20425;-71
2022/08/27 00:08:43;;;;;;;22.30;16.10;;;20.40;99.90;;;;;;5034994;28;20538;-72
2022/08/27 00:11:09;;;;;;;24.70;16.13;;;20.40;99.90;;;;;;5034669;28;20457;-72
2022/08/27 00:13:35;;;;;;;27.20;20.63;;;20.30;99.90;;;;;;5034696;28;20418;-72
2022/08/27 00:16:02;;;;;;;27.67;17.23;;;20.30;99.90;;;;;;5034233;28;20425;-71
2022/08/27 00:18:27;;;;;;;33.17;20.47;;;20.20;99.90;;;;;;5034359;28;20424;-71
2022/08/27 00:20:53;;;;;;;40.10;21.90;;;20.20;99.90;;;;;;5034592;28;20410;-71
2022/08/27 00:23:18;;;;;;;26.57;18.40;;;20.20;99.90;;;;;;5034343;28;20198;-71
2022/08/27 00:25:44;;;;;;;28.00;19.10;;;20.20;99.90;;;;;;5032855;28;20172;-72
2022/08/27 00:28:10;;;;;;;32.80;17.83;;;20.10;99.90;;;;;;5034157;28;20258;-72
2022/08/27 00:30:35;;;;;;;33.20;19.00;;;20.10;99.90;;;;;;5033775;28;20218;-71
2022/08/27 00:33:03;;;;;;;23.13;16.73;;;20.10;99.90;;;;;;5033945;28;20673;-71
2022/08/27 00:35:28;;;;;;;21.70;16.20;;;20.00;99.90;;;;;;5034095;28;20172;-71
2022/08/27 00:37:54;;;;;;;25.07;14.50;;;20.00;99.90;;;;;;5034055;28;20425;-72
2022/08/27 00:40:20;;;;;;;23.40;14.73;;;20.00;99.90;;;;;;5034176;28;20172;-73
2022/08/27 00:42:46;;;;;;;24.83;14.30;;;20.00;99.90;;;;;;5034263;28;20257;-71
2022/08/27 00:45:21;;;;;;;23.07;14.30;;;20.00;99.90;;;;;;5033552;28;20430;-71
2022/08/27 00:47:53;;;;;;;21.37;13.37;;;19.90;99.90;;;;;;5034186;28;20401;-71
2022/08/27 00:50:29;;;;;;;21.20;13.97;;;20.00;99.90;;;;;;5033996;28;20411;-71
2022/08/27 00:52:58;;;;;;;26.30;14.97;;;19.90;99.90;;;;;;5032764;28;20469;-71
2022/08/27 00:55:29;;;;;;;22.00;14.13;;;19.90;99.90;;;;;;5033830;28;20799;-71
2022/08/27 00:58:15;;;;;;;19.83;12.10;;;19.90;99.90;;;;;;5033892;28;20411;-72
2022/08/27 01:00:41;;;;;;;18.83;12.00;;;19.90;99.90;;;;;;5034172;28;20406;-72
2022/08/27 01:03:06;;;;;;;18.47;12.20;;;19.90;99.90;;;;;;5033844;28;20946;-72
2022/08/27 01:05:34;;;;;;;18.10;12.67;;;19.90;99.90;;;;;;5034022;28;20888;-72
2022/08/27 01:08:08;;;;;;;18.80;12.90;;;19.80;99.90;;;;;;5033883;28;20398;-72
2022/08/27 01:10:34;;;;;;;23.60;14.07;;;19.70;99.90;;;;;;5033916;28;20433;-72
2022/08/27 01:13:00;;;;;;;21.93;13.33;;;19.70;99.90;;;;;;5033533;28;20458;-72
2022/08/27 01:15:27;;;;;;;17.23;10.53;;;19.70;99.90;;;;;;5033428;28;20784;-72
2022/08/27 01:17:54;;;;;;;14.57;9.30;;;19.70;99.90;;;;;;5033757;28;20225;-72
2022/08/27 01:20:24;;;;;;;12.27;9.33;;;19.60;99.90;;;;;;5033748;28;20426;-72
2022/08/27 01:23:15;;;;;;;8.87;7.43;;;19.60;99.90;;;;;;5033293;28;20434;-72
2022/08/27 01:25:42;;;;;;;9.13;6.77;;;19.60;99.90;;;;;;5033240;28;20403;-73
2022/08/27 01:28:09;;;;;;;7.93;7.10;;;19.60;99.90;;;;;;5033584;28;20914;-72
2022/08/27 01:30:36;;;;;;;7.87;6.40;;;19.60;99.90;;;;;;5033702;28;20398;-72
2022/08/27 01:33:15;;;;;;;6.90;5.17;;;19.60;99.90;;;;;;5033633;28;20489;-72
2022/08/27 01:35:43;;;;;;;7.60;5.53;;;19.60;99.90;;;;;;5032921;28;20464;-71
2022/08/27 01:38:09;;;;;;;6.70;6.00;;;19.60;99.90;;;;;;5033357;28;20422;-72
2022/08/27 01:40:36;;;;;;;15.93;5.57;;;19.60;99.90;;;;;;5033450;28;20414;-72
2022/08/27 01:43:02;;;;;;;12.77;5.87;;;19.60;99.90;;;;;;5033315;28;20456;-72
2022/08/27 01:45:35;;;;;;;9.47;5.27;;;19.60;99.90;;;;;;5033003;28;20620;-71
2022/08/27 01:48:02;;;;;;;4.83;4.23;;;19.60;99.90;;;;;;5033129;28;20892;-72
2022/08/27 01:50:37;;;;;;;4.80;4.40;;;19.60;99.90;;;;;;5013436;28;20912;-72
2022/08/27 01:53:10;;;;;;;4.60;3.90;;;19.60;99.90;;;;;;5013323;28;20589;-72
2022/08/27 01:55:37;;;;;;;3.97;3.30;;;19.60;99.90;;;;;;5013123;28;20816;-72
2022/08/27 01:58:03;;;;;;;5.97;4.77;;;19.60;99.90;;;;;;5013437;28;20395;-72
2022/08/27 02:00:32;;;;;;;9.13;4.10;;;19.60;99.90;;;;;;5013476;28;20399;-72
2022/08/27 02:02:58;;;;;;;6.57;3.77;;;19.50;99.90;;;;;;5024006;28;20849;-72
2022/08/27 02:05:25;;;;;;;5.50;3.93;;;19.50;99.90;;;;;;5032702;28;20488;-71
2022/08/27 02:07:51;;;;;;;5.40;4.80;;;19.50;99.90;;;;;;5032972;28;20456;-71
2022/08/27 02:10:22;;;;;;;5.83;3.73;;;19.50;99.90;;;;;;5032986;28;20441;-71
2022/08/27 02:12:48;;;;;;;4.90;4.27;;;19.40;99.90;;;;;;5031524;28;20457;-72
2022/08/27 02:15:14;;;;;;;9.53;4.83;;;19.50;99.90;;;;;;5032594;28;20482;-72
2022/08/27 02:17:40;;;;;;;4.27;3.43;;;19.40;99.90;;;;;;5032723;28;20429;-72
2022/08/27 02:20:08;;;;;;;4.93;3.47;;;19.40;99.90;;;;;;5032748;28;21009;-72
2022/08/27 02:22:34;;;;;;;3.80;2.97;;;19.40;99.90;;;;;;5032450;28;20187;-72
2022/08/27 02:25:00;;;;;;;3.77;3.03;;;19.40;99.90;;;;;;5032451;28;20415;-72
2022/08/27 02:27:26;;;;;;;6.10;3.90;;;19.40;99.90;;;;;;5031485;28;20418;-71
2022/08/27 02:29:54;;;;;;;7.67;4.13;;;19.40;99.90;;;;;;5032658;28;20480;-72
2022/08/27 02:32:20;;;;;;;3.57;2.80;;;19.30;99.90;;;;;;5031304;28;20226;-72
2022/08/27 02:34:46;;;;;;;6.97;4.00;;;19.30;99.90;;;;;;5031035;28;20421;-72
2022/08/27 02:37:12;;;;;;;9.40;4.20;;;19.30;99.90;;;;;;5031326;28;20406;-72
2022/08/27 02:39:37;;;;;;;7.13;4.00;;;19.30;99.90;;;;;;5032687;28;20170;-71
2022/08/27 02:42:03;;;;;;;10.20;7.53;;;19.30;99.90;;;;;;5032557;28;20171;-72
2022/08/27 02:44:30;;;;;;;12.30;11.00;;;19.30;99.90;;;;;;5031839;28;20202;-72
2022/08/27 02:46:57;;;;;;;17.93;12.83;;;19.20;99.90;;;;;;5032473;28;20275;-71
2022/08/27 02:49:22;;;;;;;17.07;14.20;;;19.20;99.90;;;;;;5031168;28;20410;-72
2022/08/27 02:51:53;;;;;;;13.90;10.13;;;19.20;99.90;;;;;;5032311;28;20465;-72
2022/08/27 02:54:18;;;;;;;12.87;9.13;;;19.20;99.90;;;;;;5032270;28;20313;-72
2022/08/27 02:56:44;;;;;;;11.13;7.70;;;19.20;99.90;;;;;;5032485;28;20862;-72
2022/08/27 02:59:09;;;;;;;8.87;5.80;;;19.20;99.90;;;;;;5032591;28;20214;-72
2022/08/27 03:01:35;;;;;;;5.97;4.57;;;19.10;99.90;;;;;;5032940;28;20245;-71
2022/08/27 03:04:01;;;;;;;5.50;4.23;;;19.20;99.90;;;;;;5031904;28;20192;-71
2022/08/27 03:06:27;;;;;;;7.73;3.73;;;19.20;99.90;;;;;;5031924;28;20263;-72
2022/08/27 03:08:52;;;;;;;6.20;3.80;;;19.10;99.90;;;;;;5030944;28;20210;-72
2022/08/27 03:11:18;;;;;;;6.47;4.10;;;19.10;99.90;;;;;;5031695;28;20206;-72
2022/08/27 03:13:43;;;;;;;5.30;4.60;;;19.20;99.90;;;;;;5030626;28;20187;-72
2022/08/27 03:16:09;;;;;;;6.23;4.20;;;19.10;99.90;;;;;;5031978;28;20179;-72
2022/08/27 03:18:34;;;;;;;4.23;3.43;;;19.10;99.90;;;;;;5031981;28;20171;-72
2022/08/27 03:21:01;;;;;;;7.83;4.30;;;19.10;99.90;;;;;;5032023;28;20171;-71
2022/08/27 03:23:33;;;;;;;5.63;3.40;;;19.10;99.90;;;;;;5032042;28;20187;-71
2022/08/27 03:26:02;;;;;;;6.17;3.37;;;19.10;99.90;;;;;;5031533;28;20419;-71
2022/08/27 03:28:30;;;;;;;4.23;3.07;;;19.10;99.90;;;;;;5031950;28;20433;-71
2022/08/27 03:31:02;;;;;;;5.70;3.43;;;19.10;99.90;;;;;;5031862;28;20402;-71
2022/08/27 03:33:34;;;;;;;5.63;2.60;;;19.20;99.90;;;;;;5032338;28;20454;-70
2022/08/27 03:35:59;;;;;;;4.10;3.17;;;19.20;99.90;;;;;;5035618;28;20452;-71
2022/08/27 03:38:26;;;;;;;3.10;2.77;;;19.20;99.90;;;;;;5035304;28;20417;-72
2022/08/27 03:40:52;;;;;;;6.07;3.03;;;19.10;99.90;;;;;;5035726;28;20171;-72
2022/08/27 03:43:20;;;;;;;3.37;2.50;;;19.10;99.90;;;;;;5035614;28;20422;-71
2022/08/27 03:45:47;;;;;;;4.40;2.70;;;19.10;99.90;;;;;;5035234;28;20406;-72
2022/08/27 03:48:13;;;;;;;2.93;2.23;;;19.10;99.90;;;;;;5035593;28;20406;-73
2022/08/27 03:50:41;;;;;;;4.27;2.57;;;19.10;99.90;;;;;;5035491;28;20422;-70
2022/08/27 03:53:07;;;;;;;4.70;1.70;;;19.10;99.90;;;;;;5034918;28;20464;-70
2022/08/27 03:55:33;;;;;;;2.13;1.60;;;19.20;99.90;;;;;;5035029;28;20405;-73
2022/08/27 03:57:58;;;;;;;7.77;3.30;;;19.20;99.90;;;;;;5035369;28;20880;-71
2022/08/27 04:00:25;;;;;;;2.33;1.57;;;19.20;99.90;;;;;;5035357;28;20545;-71
2022/08/27 04:02:52;;;;;;;2.57;2.17;;;19.20;99.90;;;;;;5034919;28;20187;-71
2022/08/27 04:05:17;;;;;;;4.73;2.10;;;19.20;99.90;;;;;;5034778;28;20485;-72
2022/08/27 04:07:43;;;;;;;4.10;2.80;;;19.20;99.90;;;;;;5035272;28;20485;-72
2022/08/27 04:10:11;;;;;;;3.00;2.13;;;19.20;99.90;;;;;;5034737;28;20184;-72
2022/08/27 04:12:37;;;;;;;2.57;2.00;;;19.10;99.90;;;;;;5035014;28;20713;-72
2022/08/27 04:15:04;;;;;;;5.70;2.43;;;19.10;99.90;;;;;;5034464;28;20422;-72
2022/08/27 04:17:30;;;;;;;2.40;2.03;;;19.10;99.90;;;;;;5035028;28;20478;-72
2022/08/27 04:19:58;;;;;;;4.10;2.10;;;19.10;99.90;;;;;;5034959;28;20403;-72
2022/08/27 04:22:24;;;;;;;2.13;1.77;;;19.10;99.90;;;;;;5034766;28;20955;-71
2022/08/27 04:24:50;;;;;;;2.00;1.80;;;19.10;99.90;;;;;;5034574;28;20425;-72
2022/08/27 04:27:16;;;;;;;1.50;1.37;;;19.10;99.90;;;;;;5034568;28;20402;-72
2022/08/27 04:29:41;;;;;;;2.70;1.40;;;19.00;99.90;;;;;;5034651;28;20179;-72
2022/08/27 04:32:07;;;;;;;2.47;1.70;;;19.00;99.90;;;;;;5034531;28;20203;-72
2022/08/27 04:34:33;;;;;;;8.00;3.00;;;19.10;99.90;;;;;;5034582;28;20168;-71
2022/08/27 04:36:59;;;;;;;2.90;2.43;;;19.00;99.90;;;;;;5034820;28;20399;-71
2022/08/27 04:39:26;;;;;;;4.17;2.50;;;19.00;99.90;;;;;;5034793;28;20460;-72
2022/08/27 04:41:54;;;;;;;3.97;2.50;;;19.00;99.90;;;;;;5034349;28;20728;-71
2022/08/27 04:44:21;;;;;;;4.30;2.07;;;19.10;99.90;;;;;;5033956;28;20434;-72
2022/08/27 04:46:47;;;;;;;5.20;2.70;;;19.10;99.90;;;;;;5034364;28;20949;-71
2022/08/27 04:49:14;;;;;;;4.30;3.23;;;19.00;99.90;;;;;;5034362;28;20403;-72
2022/08/27 04:51:41;;;;;;;7.87;4.67;;;19.00;99.90;;;;;;5034197;28;20684;-72
2022/08/27 04:54:08;;;;;;;10.20;6.20;;;19.10;99.90;;;;;;5034141;28;20418;-72
2022/08/27 04:56:36;;;;;;;8.23;5.80;;;19.00;99.90;;;;;;5032533;28;20922;-72
2022/08/27 04:59:05;;;;;;;10.83;5.50;;;19.00;99.90;;;;;;5034307;28;21041;-72
2022/08/27 05:01:31;;;;;;;13.63;6.73;;;19.10;99.90;;;;;;5034202;28;20509;-72
2022/08/27 05:03:59;;;;;;;9.60;7.00;;;19.00;99.90;;;;;;5034197;28;20457;-72
2022/08/27 05:06:26;;;;;;;10.97;6.60;;;19.00;99.90;;;;;;5034051;28;20247;-71
2022/08/27 05:08:53;;;;;;;12.30;7.80;;;19.00;99.90;;;;;;5034154;28;20407;-71
2022/08/27 05:11:20;;;;;;;17.07;8.70;;;19.00;99.90;;;;;;5032259;28;20458;-71
2022/08/27 05:13:46;;;;;;;16.00;8.53;;;19.10;99.90;;;;;;5033841;28;20529;-71
2022/08/27 05:16:21;;;;;;;14.93;8.80;;;19.10;99.90;;;;;;5033727;28;20765;-71
2022/08/27 05:18:48;;;;;;;16.87;10.83;;;19.10;99.90;;;;;;5034076;28;20397;-71
2022/08/27 05:21:45;;;;;;;12.73;7.67;;;19.10;99.90;;;;;;5032676;28;20422;-72
2022/08/27 05:24:11;;;;;;;20.97;9.73;;;19.10;99.90;;;;;;5033147;28;20461;-72
2022/08/27 05:26:36;;;;;;;14.03;9.17;;;19.00;99.90;;;;;;5033722;28;20402;-72
2022/08/27 05:29:04;;;;;;;15.27;10.20;;;19.00;99.90;;;;;;5033676;28;20194;-71
2022/08/27 05:31:30;;;;;;;15.03;10.30;;;19.00;99.90;;;;;;5033497;28;20281;-72
2022/08/27 05:33:56;;;;;;;17.20;9.07;;;19.00;99.90;;;;;;5033485;28;20422;-72
2022/08/27 05:36:28;;;;;;;16.47;11.33;;;19.00;99.90;;;;;;5033313;28;20160;-72
2022/08/27 05:38:56;;;;;;;14.40;9.50;;;19.00;99.90;;;;;;5033344;28;20505;-72
2022/08/27 05:41:24;;;;;;;17.67;9.90;;;19.00;99.90;;;;;;5033405;28;20405;-72
2022/08/27 05:43:50;;;;;;;14.30;9.47;;;19.00;99.90;;;;;;5033238;28;20438;-72
2022/08/27 05:46:18;;;;;;;11.90;8.83;;;19.00;99.90;;;;;;5033174;28;20452;-72
2022/08/27 05:48:44;;;;;;;12.87;8.60;;;19.00;99.90;;;;;;5033255;28;20942;-72
2022/08/27 05:51:22;;;;;;;9.07;7.60;;;19.10;99.90;;;;;;5032799;28;20465;-72
2022/08/27 05:53:48;;;;;;;12.90;8.77;;;19.00;99.90;;;;;;5033211;28;20943;-71
2022/08/27 05:56:14;;;;;;;10.50;7.40;;;19.10;99.90;;;;;;5030975;28;20446;-72
2022/08/27 06:01:26;;;;;;;11.37;7.87;;;19.10;99.90;;;;;;5033037;28;20409;-72
2022/08/27 06:03:53;;;;;;;15.93;6.73;;;19.10;99.90;;;;;;5032947;28;21022;-72
2022/08/27 06:06:21;;;;;;;8.20;5.73;;;19.10;99.90;;;;;;5032598;28;20460;-71
2022/08/27 06:08:48;;;;;;;10.27;6.87;;;19.10;99.90;;;;;;5031740;28;20516;-71
2022/08/27 06:11:14;;;;;;;10.60;6.43;;;19.10;99.90;;;;;;5032912;28;20588;-71
2022/08/27 06:13:39;;;;;;;17.20;6.67;;;19.10;99.90;;;;;;5032687;28;20430;-71
2022/08/27 06:16:12;;;;;;;9.37;6.33;;;19.00;99.90;;;;;;5032568;28;20455;-72
2022/08/27 06:18:39;;;;;;;7.30;5.07;;;19.00;99.90;;;;;;5032530;28;20172;-71
2022/08/27 06:21:05;;;;;;;10.73;6.60;;;19.00;99.90;;;;;;5032469;28;20944;-71
2022/08/27 06:23:31;;;;;;;6.70;5.60;;;19.00;99.90;;;;;;5032522;28;20418;-71
2022/08/27 06:25:57;;;;;;;8.93;6.50;;;19.00;99.90;;;;;;5032347;28;20764;-71
2022/08/27 06:28:28;;;;;;;8.37;6.53;;;19.00;99.90;;;;;;5032734;28;20679;-71
2022/08/27 06:31:09;;;;;;;9.80;7.70;;;19.00;99.90;;;;;;5032490;28;20403;-71
2022/08/27 06:33:35;;;;;;;9.80;6.50;;;19.00;99.90;;;;;;5032318;28;20513;-71
2022/08/27 06:36:02;;;;;;;8.57;6.10;;;19.00;99.90;;;;;;5032193;28;20410;-71
2022/08/27 06:38:28;;;;;;;6.47;5.80;;;18.90;99.90;;;;;;5032632;28;20402;-71
2022/08/27 06:40:55;;;;;;;8.27;6.83;;;18.90;99.90;;;;;;5032608;28;20405;-71
2022/08/27 06:43:21;;;;;;;9.33;7.13;;;18.90;99.90;;;;;;5032412;28;20225;-71
2022/08/27 06:45:47;;;;;;;9.70;7.00;;;18.90;99.90;;;;;;5032189;28;20402;-71
2022/08/27 06:48:13;;;;;;;7.90;6.17;;;18.80;99.90;;;;;;5031968;28;20489;-71
2022/08/27 06:50:41;;;;;;;11.00;7.30;;;18.80;99.90;;;;;;5032397;28;20426;-71
2022/08/27 06:53:06;;;;;;;13.10;8.53;;;18.80;99.90;;;;;;5032116;28;20282;-71
2022/08/27 06:55:38;;;;;;;12.90;7.63;;;18.80;99.90;;;;;;5032196;28;20456;-71
2022/08/27 06:58:04;;;;;;;7.43;5.70;;;18.80;99.90;;;;;;5032332;28;20171;-71
2022/08/27 07:00:29;;;;;;;9.47;5.53;;;18.80;99.90;;;;;;5032051;28;20463;-71
2022/08/27 07:02:55;;;;;;;7.00;5.77;;;18.80;99.90;;;;;;5030964;28;20206;-71
2022/08/27 07:05:21;;;;;;;5.13;4.30;;;18.80;99.90;;;;;;5031918;28;20171;-71
2022/08/27 07:07:46;;;;;;;7.03;5.00;;;18.80;99.90;;;;;;5033543;28;20228;-71
2022/08/27 07:10:12;;;;;;;6.20;4.73;;;18.70;99.90;;;;;;5036338;28;20228;-72
2022/08/27 07:12:37;;;;;;;4.87;3.83;;;18.70;99.90;;;;;;5036274;28;20207;-71
2022/08/27 07:15:03;;;;;;;9.57;5.63;;;18.60;99.90;;;;;;5035628;28;20175;-73
2022/08/27 07:17:29;;;;;;;8.20;5.30;;;18.60;99.90;;;;;;5035859;28;20174;-71
2022/08/27 07:19:55;;;;;;;10.07;4.23;;;18.60;99.90;;;;;;5036181;28;20402;-71
2022/08/27 07:22:21;;;;;;;5.53;4.00;;;18.70;99.90;;;;;;5035565;28;20171;-71
2022/08/27 07:24:46;;;;;;;6.80;5.87;;;18.60;99.90;;;;;;5035904;28;20414;-71
2022/08/27 07:27:12;;;;;;;8.70;5.17;;;18.60;99.90;;;;;;5034951;28;20186;-71
2022/08/27 07:29:37;;;;;;;11.10;6.33;;;18.60;99.90;;;;;;5035718;28;20249;-71
2022/08/27 07:32:03;;;;;;;8.53;5.70;;;18.60;99.90;;;;;;5035894;28;20203;-71
2022/08/27 07:34:29;;;;;;;8.07;5.53;;;18.70;99.90;;;;;;5035720;28;20187;-71
2022/08/27 07:36:54;;;;;;;7.50;4.33;;;18.70;99.90;;;;;;5035488;28;20259;-71
2022/08/27 07:39:20;;;;;;;6.00;4.50;;;18.70;99.90;;;;;;5035900;28;20179;-71
2022/08/27 07:44:29;;;;;;;9.47;5.17;;;18.80;99.90;;;;;;5035382;28;20198;-71
2022/08/27 07:46:57;;;;;;;9.40;5.70;;;18.70;99.90;;;;;;5035738;28;20497;-71
2022/08/27 07:49:23;;;;;;;7.93;5.33;;;18.80;99.90;;;;;;5035611;28;20163;-72
2022/08/27 07:51:50;;;;;;;6.97;5.60;;;18.80;99.90;;;;;;5035070;28;20898;-71
2022/08/27 07:54:16;;;;;;;7.77;5.87;;;18.80;99.90;;;;;;5034978;28;20434;-71
2022/08/27 07:56:42;;;;;;;9.50;5.93;;;18.80;99.90;;;;;;5035210;28;20911;-71
2022/08/27 07:59:08;;;;;;;6.10;5.40;;;18.90;99.90;;;;;;5034777;28;20414;-72
2022/08/27 08:01:35;;;;;;;9.90;6.30;;;18.90;99.90;;;;;;5035178;28;20403;-71
2022/08/27 08:04:01;;;;;;;10.30;6.70;;;18.90;99.90;;;;;;5035493;28;20476;-72
2022/08/27 08:06:27;;;;;;;6.67;5.00;;;19.00;99.90;;;;;;5035156;28;20410;-72
2022/08/27 08:08:52;;;;;;;6.00;5.40;;;19.00;99.90;;;;;;5035127;28;20416;-71
2022/08/27 08:11:19;;;;;;;7.63;6.83;;;19.10;99.90;;;;;;5035000;28;20249;-71
2022/08/27 08:13:46;;;;;;;8.93;5.93;;;19.10;99.90;;;;;;5033576;28;20286;-72
2022/08/27 08:16:12;;;;;;;9.67;5.63;;;19.10;99.90;;;;;;5034324;28;20505;-72
2022/08/27 08:18:38;;;;;;;8.70;6.00;;;19.20;99.90;;;;;;5034391;28;20418;-71
2022/08/27 08:21:07;;;;;;;7.27;5.43;;;19.20;99.90;;;;;;5033734;28;20433;-71
2022/08/27 08:23:33;;;;;;;10.73;5.50;;;19.30;99.90;;;;;;5031784;28;20780;-72
2022/08/27 08:26:00;;;;;;;6.93;5.50;;;19.30;99.90;;;;;;5034446;28;20460;-72
2022/08/27 08:28:27;;;;;;;6.47;5.70;;;19.40;99.90;;;;;;5034677;28;20438;-72
2022/08/27 08:30:53;;;;;;;6.93;5.63;;;19.50;99.90;;;;;;5034100;28;20785;-71
2022/08/27 08:33:19;;;;;;;8.93;6.10;;;19.50;99.90;;;;;;5034137;28;20469;-72
2022/08/27 08:35:45;;;;;;;6.00;5.20;;;19.50;99.90;;;;;;5032895;28;20167;-71
2022/08/27 08:38:10;;;;;;;10.30;5.20;;;19.50;99.90;;;;;;5034660;28;20310;-71
2022/08/27 08:40:43;;;;;;;7.50;4.43;;;19.50;99.90;;;;;;5033132;28;20569;-71
2022/08/27 08:43:30;;;;;;;6.00;4.73;;;19.60;99.90;;;;;;5032949;28;20672;-71
2022/08/27 08:45:59;;;;;;;5.07;4.57;;;19.60;99.90;;;;;;5032514;28;20418;-70
2022/08/27 08:48:28;;;;;;;5.90;4.50;;;19.60;99.90;;;;;;5034133;28;20425;-71
2022/08/27 08:51:06;;;;;;;6.77;4.10;;;19.60;99.90;;;;;;5034316;28;20525;-71
2022/08/27 08:53:37;;;;;;;5.23;4.50;;;19.60;99.90;;;;;;5034558;28;20501;-72
2022/08/27 08:56:09;;;;;;;9.33;5.40;;;19.70;99.90;;;;;;5034177;28;20413;-71
2022/08/27 08:58:47;;;;;;;6.40;5.00;;;19.60;99.90;;;;;;5034235;28;20414;-71
2022/08/27 09:01:17;;;;;;;4.57;3.97;;;19.60;99.90;;;;;;5033788;28;20394;-70
2022/08/27 09:03:51;;;;;;;6.07;4.83;;;19.60;99.90;;;;;;5033566;28;20423;-71
2022/08/27 09:06:26;;;;;;;6.93;4.90;;;19.70;99.90;;;;;;5033753;28;20402;-71
2022/08/27 09:08:51;;;;;;;7.90;4.90;;;19.70;99.90;;;;;;5033939;28;20477;-71
2022/08/27 09:11:25;;;;;;;6.33;4.87;;;19.70;99.90;;;;;;5033611;28;20640;-71
2022/08/27 09:13:54;;;;;;;9.90;5.83;;;19.80;99.90;;;;;;5013849;28;20226;-71
2022/08/27 09:16:20;;;;;;;6.07;4.23;;;19.90;99.90;;;;;;5013626;28;20769;-71
2022/08/27 09:18:46;;;;;;;5.33;4.13;;;19.90;99.90;;;;;;5019535;28;20505;-71
2022/08/27 09:21:19;;;;;;;10.60;4.77;;;20.00;99.90;;;;;;5033267;28;20521;-71
2022/08/27 09:24:19;;;;;;;4.47;4.07;;;20.10;99.90;;;;;;5033530;28;20441;-71
2022/08/27 09:26:45;;;;;;;10.97;5.27;;;20.20;99.90;;;;;;5031809;28;20418;-71
2022/08/27 09:29:20;;;;;;;5.87;4.57;;;20.30;99.90;;;;;;5033753;28;20425;-70
2022/08/27 09:32:05;;;;;;;7.63;4.40;;;20.40;99.90;;;;;;5030996;28;20205;-70
2022/08/27 09:34:41;;;;;;;11.90;5.40;;;20.40;99.90;;;;;;5033080;28;20915;-70
2022/08/27 09:37:20;;;;;;;7.67;5.20;;;20.50;99.90;;;;;;5033402;28;20895;-71
2022/08/27 09:39:51;;;;;;;6.60;5.20;;;20.60;99.90;;;;;;5033137;28;20475;-71
2022/08/27 09:42:31;;;;;;;5.00;4.50;;;20.90;99.90;;;;;;5033423;28;20484;-71
2022/08/27 09:44:57;;;;;;;5.63;4.80;;;21.00;99.90;;;;;;5033057;28;20409;-71
2022/08/27 09:47:24;;;;;;;6.00;4.77;;;21.10;99.90;;;;;;5033058;28;20406;-71
2022/08/27 09:50:06;;;;;;;7.00;5.30;;;21.10;99.90;;;;;;5033050;28;20403;-70
2022/08/27 09:52:54;;;;;;;5.30;4.80;;;21.10;99.90;;;;;;5031777;28;20485;-71
2022/08/27 09:55:42;;;;;;;6.07;4.87;;;21.00;99.90;;;;;;5013020;28;20454;-72
2022/08/27 09:58:35;;;;;;;5.43;4.47;;;20.90;99.90;;;;;;5013332;28;20403;-72
2022/08/27 10:01:15;;;;;;;12.70;9.70;;;21.00;99.90;;;;;;5011600;28;20418;-71
2022/08/27 10:03:42;;;;;;;35.13;23.50;;;21.10;99.90;;;;;;5013038;28;20520;-72
2022/08/27 10:06:09;;;;;;;23.73;16.90;;;21.20;99.90;;;;;;5012704;28;20926;-71
2022/08/27 10:08:49;;;;;;;19.93;12.77;;;21.30;99.90;;;;;;5028990;28;20414;-71
2022/08/27 10:11:45;;;;;;;22.37;15.20;;;21.30;99.90;;;;;;5032675;28;20406;-71
2022/08/27 10:14:27;;;;;;;12.50;8.57;;;21.30;99.90;;;;;;5032193;28;20430;-71
2022/08/27 10:17:17;;;;;;;8.47;5.50;;;21.20;99.90;;;;;;5032591;28;20430;-71
2022/08/27 10:20:06;;;;;;;18.83;10.93;;;21.10;99.90;;;;;;5032862;28;20429;-71
2022/08/27 10:22:40;;;;;;;6.17;5.17;;;21.10;99.90;;;;;;5032517;28;20430;-72
2022/08/27 10:25:10;;;;;;;6.43;4.30;;;21.30;99.90;;;;;;5032414;28;20409;-72
2022/08/27 10:28:05;;;;;;;5.67;4.63;;;21.30;99.90;;;;;;5031484;28;20915;-72
2022/08/27 10:30:48;;;;;;;5.37;4.17;;;21.50;99.90;;;;;;5032768;28;20743;-71
2022/08/27 10:33:51;;;;;;;6.40;4.53;;;21.60;99.90;;;;;;5032298;28;20461;-71
2022/08/27 10:36:43;;;;;;;7.70;4.23;;;21.60;99.90;;;;;;5030750;28;20418;-73
2022/08/27 10:39:23;;;;;;;7.23;6.50;;;21.80;99.90;;;;;;5032039;28;20410;-70
2022/08/27 10:42:03;;;;;;;10.43;6.13;;;21.90;99.90;;;;;;5031061;28;20923;-70
2022/08/27 10:44:35;;;;;;;8.03;5.03;;;22.10;99.90;;;;;;5031732;28;20422;-70
2022/08/27 10:47:27;;;;;;;6.97;4.27;;;22.20;99.90;;;;;;5032297;28;20402;-71
2022/08/27 10:50:02;;;;;;;5.60;4.60;;;22.20;99.90;;;;;;5032330;28;20442;-71
2022/08/27 10:52:34;;;;;;;6.50;4.90;;;22.20;99.90;;;;;;5032180;28;21147;-71
2022/08/27 10:55:22;;;;;;;10.47;4.93;;;22.20;99.90;;;;;;5032040;28;20598;-71
2022/08/27 10:58:00;;;;;;;9.20;5.07;;;22.20;99.90;;;;;;5032478;28;20418;-71
2022/08/27 11:00:50;;;;;;;5.47;4.00;;;22.20;99.90;;;;;;5032032;28;20425;-71
2022/08/27 11:03:26;;;;;;;5.93;4.57;;;22.20;99.90;;;;;;5031751;28;20529;-71
2022/08/27 11:05:54;;;;;;;6.43;3.90;;;22.20;99.90;;;;;;5031487;28;20398;-71
2022/08/27 11:08:34;;;;;;;4.20;3.77;;;22.10;99.90;;;;;;5032030;28;20417;-71
2022/08/27 11:11:11;;;;;;;3.93;3.47;;;22.20;99.90;;;;;;5032006;28;20400;-71
2022/08/27 11:13:45;;;;;;;8.87;3.40;;;22.10;99.90;;;;;;5031401;28;20830;-71
2022/08/27 11:16:17;;;;;;;5.20;4.70;;;22.10;99.90;;;;;;5031591;28;20402;-71
2022/08/27 11:18:47;;;;;;;4.70;4.30;;;22.20;99.90;;;;;;5032008;28;20399;-72
2022/08/27 11:21:24;;;;;;;6.47;5.63;;;22.20;99.90;;;;;;5032160;28;20402;-71
2022/08/27 11:23:59;;;;;;;4.80;4.30;;;22.30;99.90;;;;;;5032142;28;20454;-72
2022/08/27 11:26:24;;;;;;;9.60;5.47;;;22.30;99.90;;;;;;5031841;28;20510;-71
2022/08/27 11:28:55;;;;;;;4.80;3.90;;;22.20;99.90;;;;;;5031946;28;20866;-72
2022/08/27 11:31:21;;;;;;;4.93;4.43;;;22.20;99.90;;;;;;5030600;28;20183;-71
2022/08/27 11:34:13;;;;;;;8.17;5.00;;;22.30;99.90;;;;;;5031589;28;20919;-71
2022/08/27 11:37:02;;;;;;;6.40;4.07;;;22.40;99.90;;;;;;5031567;28;20221;-71
2022/08/27 11:39:57;;;;;;;6.77;4.67;;;22.50;99.90;;;;;;5031739;28;20390;-71
2022/08/27 11:42:51;;;;;;;9.80;5.63;;;22.60;99.90;;;;;;5012009;28;20501;-71
2022/08/27 11:45:56;;;;;;;5.20;4.80;;;22.70;99.90;;;;;;5010742;28;20727;-71
2022/08/27 11:48:35;;;;;;;5.33;4.83;;;22.90;99.90;;;;;;5012179;28;20449;-72
2022/08/27 11:51:02;;;;;;;6.73;5.87;;;23.00;99.90;;;;;;5012074;28;20419;-71
2022/08/27 11:53:34;;;;;;;5.60;4.50;;;23.10;99.90;;;;;;5011961;28;20960;-72
2022/08/27 11:56:35;;;;;;;10.70;5.90;;;23.20;99.90;;;;;;5032888;28;20414;-72
2022/08/27 11:59:25;;;;;;;5.47;4.97;;;23.30;99.90;;;;;;5035398;28;20738;-71
2022/08/27 12:01:52;;;;;;;4.60;4.20;;;23.50;99.90;;;;;;5035183;28;20398;-71
2022/08/27 12:04:21;;;;;;;6.07;5.43;;;23.60;99.90;;;;;;5033355;28;20499;-71
2022/08/27 12:07:01;;;;;;;6.57;5.33;;;23.70;99.90;;;;;;5035036;28;20398;-70
2022/08/27 12:09:28;;;;;;;6.97;6.27;;;23.90;99.90;;;;;;5034845;28;20418;-70
2022/08/27 12:12:00;;;;;;;7.93;6.10;;;23.90;99.90;;;;;;5034801;28;20544;-70
2022/08/27 12:14:38;;;;;;;7.03;5.00;;;24.00;99.90;;;;;;5034577;28;20856;-70
2022/08/27 12:17:34;;;;;;;5.70;5.00;;;24.10;99.90;;;;;;5034835;28;20413;-71
2022/08/27 12:20:25;;;;;;;8.23;4.97;;;24.20;99.90;;;;;;5033535;28;20778;-73
2022/08/27 12:26:18;;;;;;;5.40;4.90;;;24.20;99.90;;;;;;5034913;28;20398;-72
2022/08/27 12:28:43;;;;;;;5.60;5.10;;;24.10;99.90;;;;;;5033599;28;20445;-72
2022/08/27 12:31:09;;;;;;;5.53;5.03;;;24.20;99.90;;;;;;5034598;28;20907;-73
2022/08/27 12:33:56;;;;;;;6.57;5.37;;;24.20;99.90;;;;;;5034850;28;20691;-70
2022/08/27 12:36:26;;;;;;;5.60;5.10;;;24.30;99.90;;;;;;5034028;28;20463;-70
2022/08/27 12:38:55;;;;;;;6.90;4.90;;;24.30;99.90;;;;;;5034647;28;20406;-71
2022/08/27 12:41:36;;;;;;;6.77;4.93;;;24.50;99.90;;;;;;5034461;28;20409;-71
2022/08/27 12:44:10;;;;;;;7.97;4.37;;;24.60;99.90;;;;;;5034578;28;20426;-72
2022/08/27 12:47:01;;;;;;;4.47;4.07;;;24.60;99.90;;;;;;5034406;28;20485;-71
2022/08/27 12:49:51;;;;;;;5.87;4.30;;;24.70;99.90;;;;;;5033634;28;20424;-71
2022/08/27 12:52:25;;;;;;;4.00;3.60;;;24.90;99.90;;;;;;5034101;28;20466;-71
2022/08/27 12:55:12;;;;;;;4.40;3.40;;;25.00;99.90;;;;;;5033976;28;20398;-72
2022/08/27 12:57:48;;;;;;;5.63;4.43;;;25.10;99.90;;;;;;5033384;28;20425;-72
2022/08/27 13:00:19;;;;;;;4.40;3.73;;;25.30;99.90;;;;;;5034279;28;20405;-71
2022/08/27 13:03:00;;;;;;;6.00;3.10;;;25.40;99.90;;;;;;5034212;28;20840;-71
2022/08/27 13:05:26;;;;;;;3.60;3.30;;;25.60;99.90;;;;;;5033732;28;21057;-71
2022/08/27 13:07:53;;;;;;;4.30;3.77;;;25.60;99.90;;;;;;5034099;28;20410;-72
2022/08/27 13:10:29;;;;;;;4.40;4.00;;;25.50;99.90;;;;;;5033745;28;20410;-71